createdAt,value
2017-09-12T00:00:38.542Z,90.48
2017-09-12T00:01:38.519Z,90.3
2017-09-12T00:02:38.500Z,90.48
2017-09-12T00:03:38.475Z,90.3
2017-09-12T00:04:38.149Z,90.48
2017-09-12T00:05:38.434Z,90.2
2017-09-12T00:06:38.413Z,90.48
2017-09-12T00:07:38.390Z,90.67
2017-09-12T00:08:38.370Z,90.2
2017-09-12T00:09:38.345Z,90.67
2017-09-12T00:10:38.328Z,90.1
2017-09-12T00:11:38.309Z,90.58
2017-09-12T00:12:38.283Z,90.67
2017-09-12T00:13:37.958Z,90.67
2017-09-12T00:14:38.241Z,90.3
2017-09-12T00:15:38.216Z,90.67
2017-09-12T00:16:38.198Z,90.3
2017-09-12T00:17:38.173Z,90.58
2017-09-12T00:18:38.160Z,90.3
2017-09-12T00:19:38.159Z,90.3
2017-09-12T00:20:38.112Z,90.2
2017-09-12T00:21:38.087Z,90.2
2017-09-12T00:22:38.068Z,90.2
2017-09-12T00:23:38.046Z,90.3
2017-09-12T00:24:38.025Z,90.3
2017-09-12T00:25:38.002Z,90.3
2017-09-12T00:26:37.982Z,90.39
2017-09-12T00:27:37.958Z,90.2
2017-09-12T00:28:37.933Z,90.48
2017-09-12T00:29:37.913Z,90.3
2017-09-12T00:30:37.893Z,90.67
2017-09-12T00:31:37.871Z,90.1
2017-09-12T00:32:37.852Z,90.67
2017-09-12T00:33:39.022Z,90.3
2017-09-12T00:34:37.811Z,90.67
2017-09-12T00:35:37.786Z,90.3
2017-09-12T00:36:37.761Z,90.67
2017-09-12T00:37:37.739Z,90.67
2017-09-12T00:38:37.720Z,90.3
2017-09-12T00:39:37.697Z,90.39
2017-09-12T00:40:37.676Z,90.39
2017-09-12T00:41:37.656Z,90.01
2017-09-12T00:42:37.635Z,90.1
2017-09-12T00:43:37.612Z,90.1
2017-09-12T00:44:37.592Z,90.01
2017-09-12T00:45:37.569Z,90.39
2017-09-12T00:46:37.544Z,90.3
2017-09-12T00:47:37.524Z,90.3
2017-09-12T00:48:37.507Z,91.06
2017-09-12T00:49:37.480Z,90.39
2017-09-12T00:50:37.459Z,90.67
2017-09-12T00:51:37.442Z,90.67
2017-09-12T00:52:37.421Z,90.77
2017-09-12T00:53:37.396Z,90.77
2017-09-12T00:54:37.373Z,90.67
2017-09-12T00:55:37.356Z,90.67
2017-09-12T00:56:37.334Z,90.77
2017-09-12T00:57:37.301Z,90.77
2017-09-12T00:58:37.284Z,90.87
2017-09-12T00:59:37.266Z,90.87
2017-09-12T01:00:37.246Z,90.87
2017-09-12T01:01:37.223Z,90.77
2017-09-12T01:02:37.202Z,90.58
2017-09-12T01:03:37.178Z,90.48
2017-09-12T01:04:37.160Z,90.77
2017-09-12T01:05:37.134Z,90.67
2017-09-12T01:06:37.114Z,90.77
2017-09-12T01:07:37.099Z,90.3
2017-09-12T01:08:37.073Z,90.67
2017-09-12T01:09:37.052Z,90.39
2017-09-12T01:10:37.027Z,90.87
2017-09-12T01:11:37.011Z,90.48
2017-09-12T01:12:36.991Z,90.39
2017-09-12T01:13:36.964Z,90.48
2017-09-12T01:14:36.942Z,90.87
2017-09-12T01:15:36.919Z,90.87
2017-09-12T01:16:36.902Z,90.87
2017-09-12T01:17:36.878Z,90.48
2017-09-12T01:18:36.859Z,90.87
2017-09-12T01:19:36.832Z,90.67
2017-09-12T01:20:36.819Z,90.48
2017-09-12T01:21:36.788Z,91.25
2017-09-12T01:22:36.471Z,90.87
2017-09-12T01:23:36.749Z,90.67
2017-09-12T01:24:36.724Z,90.67
2017-09-12T01:25:36.707Z,90.87
2017-09-12T01:26:36.374Z,90.87
2017-09-12T01:27:36.352Z,90.87
2017-09-12T01:28:36.638Z,90.87
2017-09-12T01:29:36.619Z,90.48
2017-09-12T01:30:36.599Z,90.87
2017-09-12T01:31:36.574Z,90.48
2017-09-12T01:32:36.554Z,90.96
2017-09-12T01:33:36.229Z,90.48
2017-09-12T01:34:36.515Z,91.25
2017-09-12T01:35:36.487Z,90.96
2017-09-12T01:36:36.470Z,90.67
2017-09-12T01:37:36.451Z,91.06
2017-09-12T01:38:36.423Z,91.06
2017-09-12T01:39:36.404Z,91.06
2017-09-12T01:40:36.381Z,90.48
2017-09-12T01:41:36.051Z,90.96
2017-09-12T01:42:36.350Z,91.06
2017-09-12T01:43:36.321Z,91.06
2017-09-12T01:44:36.294Z,91.06
2017-09-12T01:45:36.272Z,91.16
2017-09-12T01:46:36.253Z,91.25
2017-09-12T01:47:36.230Z,91.16
2017-09-12T01:48:36.219Z,90.96
2017-09-12T01:49:36.187Z,91.06
2017-09-12T01:50:36.169Z,91.06
2017-09-12T01:51:36.145Z,90.96
2017-09-12T01:52:36.124Z,91.06
2017-09-12T01:53:36.099Z,90.96
2017-09-12T01:54:36.081Z,90.96
2017-09-12T01:55:36.056Z,91.25
2017-09-12T01:56:36.033Z,90.87
2017-09-12T01:57:36.022Z,90.96
2017-09-12T01:58:35.999Z,91.06
2017-09-12T01:59:35.971Z,90.87
2017-09-12T02:00:35.948Z,91.06
2017-09-12T02:01:35.931Z,91.25
2017-09-12T02:02:35.906Z,90.77
2017-09-12T02:03:35.888Z,90.96
2017-09-12T02:04:35.871Z,91.06
2017-09-12T02:05:35.840Z,91.44
2017-09-12T02:06:35.819Z,91.06
2017-09-12T02:07:35.800Z,91.06
2017-09-12T02:08:35.777Z,91.06
2017-09-12T02:09:35.756Z,91.06
2017-09-12T02:10:35.734Z,90.77
2017-09-12T02:11:35.715Z,91.06
2017-09-12T02:12:35.688Z,91.63
2017-09-12T02:13:35.676Z,91.63
2017-09-12T02:14:35.651Z,91.63
2017-09-12T02:15:35.626Z,91.63
2017-09-12T02:16:35.625Z,91.63
2017-09-12T02:17:35.579Z,91.63
2017-09-12T02:18:35.250Z,91.44
2017-09-12T02:19:35.535Z,91.53
2017-09-12T02:20:35.516Z,91.53
2017-09-12T02:21:35.497Z,91.63
2017-09-12T02:22:35.485Z,91.44
2017-09-12T02:23:35.450Z,91.35
2017-09-12T02:24:35.433Z,91.44
2017-09-12T02:25:35.411Z,91.73
2017-09-12T02:26:35.386Z,91.35
2017-09-12T02:27:35.369Z,91.44
2017-09-12T02:28:35.342Z,91.44
2017-09-12T02:29:35.017Z,91.73
2017-09-12T02:30:35.298Z,91.73
2017-09-12T02:31:35.280Z,91.53
2017-09-12T02:32:35.257Z,91.44
2017-09-12T02:33:35.235Z,91.63
2017-09-12T02:34:35.215Z,91.53
2017-09-12T02:35:35.200Z,91.63
2017-09-12T02:36:35.179Z,91.44
2017-09-12T02:37:35.149Z,91.63
2017-09-12T02:38:35.123Z,91.73
2017-09-12T02:39:35.110Z,91.73
2017-09-12T02:40:35.083Z,91.06
2017-09-12T02:41:35.060Z,91.53
2017-09-12T02:42:35.046Z,91.63
2017-09-12T02:43:35.018Z,91.06
2017-09-12T02:44:34.997Z,91.73
2017-09-12T02:45:34.975Z,91.63
2017-09-12T02:46:34.953Z,91.63
2017-09-12T02:47:34.929Z,91.73
2017-09-12T02:48:34.914Z,91.73
2017-09-12T02:49:34.894Z,91.63
2017-09-12T02:50:34.871Z,91.73
2017-09-12T02:51:34.844Z,91.63
2017-09-12T02:52:34.829Z,91.44
2017-09-12T02:53:34.824Z,91.73
2017-09-12T02:54:34.788Z,91.73
2017-09-12T02:55:34.763Z,91.63
2017-09-12T02:56:34.744Z,91.63
2017-09-12T02:57:34.723Z,91.44
2017-09-12T02:58:34.695Z,91.63
2017-09-12T02:59:34.676Z,91.63
2017-09-12T03:00:34.649Z,91.83
2017-09-12T03:01:34.628Z,91.44
2017-09-12T03:02:34.607Z,90.77
2017-09-12T03:03:34.594Z,91.44
2017-09-12T03:04:34.568Z,91.63
2017-09-12T03:05:34.546Z,91.44
2017-09-12T03:06:34.528Z,90.96
2017-09-12T03:07:34.498Z,91.73
2017-09-12T03:08:34.482Z,91.92
2017-09-12T03:09:34.464Z,90.96
2017-09-12T03:10:34.125Z,90.87
2017-09-12T03:11:34.106Z,90.96
2017-09-12T03:12:34.392Z,90.96
2017-09-12T03:13:34.373Z,90.87
2017-09-12T03:14:34.355Z,91.06
2017-09-12T03:15:34.329Z,91.06
2017-09-12T03:16:34.310Z,90.87
2017-09-12T03:17:34.289Z,90.87
2017-09-12T03:18:34.269Z,91.06
2017-09-12T03:19:34.238Z,91.06
2017-09-12T03:20:33.916Z,90.96
2017-09-12T03:21:34.206Z,90.96
2017-09-12T03:22:34.180Z,91.53
2017-09-12T03:23:34.158Z,91.63
2017-09-12T03:24:34.134Z,91.53
2017-09-12T03:25:34.111Z,91.44
2017-09-12T03:26:34.093Z,91.63
2017-09-12T03:27:34.070Z,91.68
2017-09-12T03:28:34.055Z,91.44
2017-09-12T03:29:34.030Z,91.44
2017-09-12T03:30:34.014Z,91.44
2017-09-12T03:31:33.982Z,91.35
2017-09-12T03:32:33.652Z,91.44
2017-09-12T03:33:33.947Z,91.44
2017-09-12T03:34:33.919Z,91.53
2017-09-12T03:35:33.894Z,91.53
2017-09-12T03:36:33.872Z,91.3
2017-09-12T03:37:33.850Z,91.2
2017-09-12T03:38:33.829Z,91.35
2017-09-12T03:39:33.808Z,91.49
2017-09-12T03:40:33.786Z,91.3
2017-09-12T03:41:33.765Z,91.2
2017-09-12T03:42:33.741Z,91.2
2017-09-12T03:43:33.719Z,91.3
2017-09-12T03:44:33.729Z,91.68
2017-09-12T03:45:33.683Z,91.68
2017-09-12T03:46:33.657Z,91.49
2017-09-12T03:47:33.636Z,91.3
2017-09-12T03:48:33.615Z,91.59
2017-09-12T03:49:33.595Z,91.68
2017-09-12T03:50:33.573Z,91.68
2017-09-12T03:51:33.555Z,91.59
2017-09-12T03:52:33.526Z,91.39
2017-09-12T03:53:33.507Z,91.3
2017-09-12T03:54:33.483Z,91.49
2017-09-12T03:55:33.463Z,91.68
2017-09-12T03:56:33.439Z,91.88
2017-09-12T03:57:33.112Z,91.88
2017-09-12T03:58:33.402Z,91.49
2017-09-12T03:59:33.375Z,91.49
2017-09-12T04:00:33.354Z,91.39
2017-09-12T04:01:33.332Z,91.3
2017-09-12T04:02:33.316Z,91.3
2017-09-12T04:03:33.282Z,91.3
2017-09-12T04:04:33.269Z,91.59
2017-09-12T04:05:32.936Z,91.2
2017-09-12T04:06:32.921Z,91.68
2017-09-12T04:07:33.198Z,91.59
2017-09-12T04:08:33.180Z,91.39
2017-09-12T04:09:33.157Z,91.68
2017-09-12T04:10:33.136Z,91.11
2017-09-12T04:11:33.114Z,91.39
2017-09-12T04:12:33.101Z,91.59
2017-09-12T04:13:32.760Z,91.3
2017-09-12T04:14:33.057Z,91.39
2017-09-12T04:15:33.029Z,91.59
2017-09-12T04:16:33.010Z,91.11
2017-09-12T04:17:32.983Z,91.49
2017-09-12T04:18:32.963Z,91.3
2017-09-12T04:19:32.943Z,91.49
2017-09-12T04:20:33.021Z,91.39
2017-09-12T04:21:32.894Z,91.11
2017-09-12T04:22:32.878Z,91.59
2017-09-12T04:23:32.852Z,91.39
2017-09-12T04:24:32.835Z,91.39
2017-09-12T04:25:32.808Z,91.68
2017-09-12T04:26:32.790Z,91.59
2017-09-12T04:27:32.776Z,91.59
2017-09-12T04:28:32.744Z,91.59
2017-09-12T04:29:32.734Z,91.68
2017-09-12T04:30:32.697Z,91.3
2017-09-12T04:31:32.678Z,91.3
2017-09-12T04:32:32.356Z,91.39
2017-09-12T04:33:32.636Z,91.39
2017-09-12T04:34:32.619Z,91.68
2017-09-12T04:35:32.591Z,91.97
2017-09-12T04:36:32.575Z,92.07
2017-09-12T04:37:32.547Z,91.97
2017-09-12T04:38:32.524Z,92.16
2017-09-12T04:39:32.200Z,91.78
2017-09-12T04:40:32.482Z,91.78
2017-09-12T04:41:32.461Z,92.16
2017-09-12T04:42:32.437Z,91.88
2017-09-12T04:43:32.419Z,91.97
2017-09-12T04:44:32.396Z,91.78
2017-09-12T04:45:32.377Z,92.16
2017-09-12T04:46:32.355Z,92.54
2017-09-12T04:47:32.330Z,92.35
2017-09-12T04:48:32.311Z,92.64
2017-09-12T04:49:32.291Z,91.88
2017-09-12T04:50:32.269Z,92.25
2017-09-12T04:51:32.248Z,92.25
2017-09-12T04:52:32.227Z,92.25
2017-09-12T04:53:32.204Z,92.16
2017-09-12T04:54:32.180Z,92.45
2017-09-12T04:55:32.159Z,92.45
2017-09-12T04:56:32.136Z,92.35
2017-09-12T04:57:32.115Z,92.54
2017-09-12T04:58:32.091Z,92.64
2017-09-12T04:59:32.069Z,92.64
2017-09-12T05:00:32.051Z,92.64
2017-09-12T05:01:32.028Z,92.45
2017-09-12T05:02:32.010Z,92.64
2017-09-12T05:03:31.989Z,92.54
2017-09-12T05:04:31.960Z,92.83
2017-09-12T05:05:31.939Z,93.12
2017-09-12T05:06:31.922Z,93.12
2017-09-12T05:07:31.897Z,93.12
2017-09-12T05:08:31.879Z,93.02
2017-09-12T05:09:31.850Z,92.74
2017-09-12T05:10:31.835Z,92.93
2017-09-12T05:11:31.813Z,92.93
2017-09-12T05:12:31.786Z,92.45
2017-09-12T05:13:31.775Z,93.12
2017-09-12T05:14:31.752Z,93.21
2017-09-12T05:15:31.725Z,93.12
2017-09-12T05:16:31.705Z,92.74
2017-09-12T05:17:31.680Z,92.74
2017-09-12T05:18:31.664Z,93.21
2017-09-12T05:19:31.636Z,92.54
2017-09-12T05:20:31.614Z,92.83
2017-09-12T05:21:31.595Z,92.83
2017-09-12T05:22:31.570Z,93.02
2017-09-12T05:23:31.548Z,93.21
2017-09-12T05:24:31.530Z,93.21
2017-09-12T05:25:31.508Z,92.93
2017-09-12T05:26:31.482Z,93.21
2017-09-12T05:27:31.460Z,92.93
2017-09-12T05:28:31.442Z,92.83
2017-09-12T05:29:31.443Z,93.12
2017-09-12T05:30:31.398Z,92.83
2017-09-12T05:31:31.377Z,92.83
2017-09-12T05:32:31.356Z,92.64
2017-09-12T05:33:31.331Z,93.02
2017-09-12T05:34:31.308Z,92.83
2017-09-12T05:35:30.979Z,93.02
2017-09-12T05:36:31.263Z,93.31
2017-09-12T05:37:31.248Z,93.02
2017-09-12T05:38:31.217Z,93.21
2017-09-12T05:39:31.206Z,93.12
2017-09-12T05:40:31.180Z,93.12
2017-09-12T05:41:31.161Z,93.12
2017-09-12T05:42:31.134Z,93.4
2017-09-12T05:43:31.113Z,93.12
2017-09-12T05:44:30.788Z,93.88
2017-09-12T05:45:31.068Z,93.69
2017-09-12T05:46:31.045Z,93.4
2017-09-12T05:47:31.028Z,93.02
2017-09-12T05:48:31.007Z,93.4
2017-09-12T05:49:30.982Z,93.6
2017-09-12T05:50:30.964Z,93.79
2017-09-12T05:51:30.937Z,93.4
2017-09-12T05:52:30.921Z,93.21
2017-09-12T05:53:30.894Z,93.6
2017-09-12T05:54:30.875Z,93.4
2017-09-12T05:55:30.854Z,93.21
2017-09-12T05:56:30.831Z,93.79
2017-09-12T05:57:30.807Z,93.4
2017-09-12T05:58:30.786Z,93.4
2017-09-12T05:59:30.768Z,93.21
2017-09-12T06:00:30.742Z,93.21
2017-09-12T06:01:30.725Z,93.4
2017-09-12T06:02:30.704Z,93.21
2017-09-12T06:03:30.673Z,93.4
2017-09-12T06:04:30.349Z,93.31
2017-09-12T06:05:30.636Z,93.6
2017-09-12T06:06:30.614Z,93.21
2017-09-12T06:07:30.590Z,93.21
2017-09-12T06:08:30.570Z,93.31
2017-09-12T06:09:30.549Z,93.21
2017-09-12T06:10:30.530Z,93.6
2017-09-12T06:11:30.510Z,93.4
2017-09-12T06:12:30.484Z,93.79
2017-09-12T06:13:30.471Z,93.12
2017-09-12T06:14:30.443Z,93.6
2017-09-12T06:15:30.421Z,93.12
2017-09-12T06:16:30.394Z,92.88
2017-09-12T06:17:30.415Z,92.97
2017-09-12T06:18:30.361Z,93.35
2017-09-12T06:19:30.331Z,93.55
2017-09-12T06:20:30.315Z,93.26
2017-09-12T06:21:30.297Z,92.97
2017-09-12T06:22:30.269Z,92.78
2017-09-12T06:23:30.246Z,93.16
2017-09-12T06:24:30.229Z,93.35
2017-09-12T06:25:30.210Z,92.88
2017-09-12T06:26:30.187Z,92.59
2017-09-12T06:27:30.166Z,92.69
2017-09-12T06:28:30.146Z,92.73
2017-09-12T06:29:30.119Z,92.3
2017-09-12T06:30:30.100Z,92.59
2017-09-12T06:31:30.082Z,92.49
2017-09-12T06:32:30.063Z,92.3
2017-09-12T06:33:30.038Z,92.49
2017-09-12T06:34:30.011Z,92.35
2017-09-12T06:35:29.998Z,92.69
2017-09-12T06:36:29.978Z,92.88
2017-09-12T06:37:29.949Z,92.69
2017-09-12T06:38:29.930Z,92.59
2017-09-12T06:39:29.916Z,92.69
2017-09-12T06:40:29.889Z,92.69
2017-09-12T06:41:29.872Z,92.78
2017-09-12T06:43:29.822Z,93.16
2017-09-12T06:44:29.802Z,93.16
2017-09-12T06:45:29.784Z,93.07
2017-09-12T06:46:29.758Z,92.93
2017-09-12T06:47:29.739Z,93.21
2017-09-12T06:48:29.440Z,93.21
2017-09-12T06:49:29.692Z,93.21
2017-09-12T06:50:29.675Z,93.31
2017-09-12T06:51:29.650Z,93.35
2017-09-12T06:52:29.631Z,93.4
2017-09-12T06:53:29.642Z,93.26
2017-09-12T06:54:29.593Z,93.16
2017-09-12T06:55:29.568Z,93.16
2017-09-12T06:56:29.544Z,92.78
2017-09-12T06:57:29.523Z,92.97
2017-09-12T06:58:29.508Z,93.07
2017-09-12T06:59:29.483Z,93.16
2017-09-12T07:00:29.457Z,92.78
2017-09-12T07:01:29.440Z,93.35
2017-09-12T07:02:29.418Z,92.88
2017-09-12T07:03:29.393Z,92.88
2017-09-12T07:04:29.374Z,92.69
2017-09-12T07:05:29.353Z,92.49
2017-09-12T07:06:29.334Z,93.07
2017-09-12T07:07:29.313Z,92.73
2017-09-12T07:08:29.286Z,92.63
2017-09-12T07:09:29.273Z,92.68
2017-09-12T07:10:29.254Z,92.01
2017-09-12T07:11:29.229Z,91.67
2017-09-12T07:12:29.206Z,91.49
2017-09-12T07:13:29.185Z,92.06
2017-09-12T07:14:28.886Z,91.63
2017-09-12T07:15:29.145Z,91.63
2017-09-12T07:16:29.122Z,91.82
2017-09-12T07:17:29.131Z,91.63
2017-09-12T07:18:29.081Z,91.72
2017-09-12T07:19:29.070Z,91.44
2017-09-12T07:20:29.037Z,91.82
2017-09-12T07:21:29.015Z,91.15
2017-09-12T07:22:28.997Z,91.53
2017-09-12T07:23:28.978Z,91.53
2017-09-12T07:24:29.000Z,91.53
2017-09-12T07:25:28.935Z,91.63
2017-09-12T07:26:28.920Z,91.72
2017-09-12T07:27:28.892Z,91.63
2017-09-12T07:28:28.873Z,91.53
2017-09-12T07:29:28.856Z,91.44
2017-09-12T07:30:28.836Z,91.44
2017-09-12T07:31:28.842Z,91.63
2017-09-12T07:32:28.792Z,91.44
2017-09-12T07:33:28.767Z,91.44
2017-09-12T07:34:28.752Z,91.86
2017-09-12T07:35:28.421Z,91.19
2017-09-12T07:36:28.705Z,91.19
2017-09-12T07:37:28.688Z,90.72
2017-09-12T07:38:28.660Z,90.47
2017-09-12T07:39:28.642Z,90.62
2017-09-12T07:40:28.618Z,90.38
2017-09-12T07:41:28.607Z,90.47
2017-09-12T07:42:28.592Z,90.76
2017-09-12T07:43:28.565Z,90.23
2017-09-12T07:44:28.547Z,90.81
2017-09-12T07:45:28.520Z,90.43
2017-09-12T07:46:28.504Z,90.72
2017-09-12T07:47:28.479Z,90.62
2017-09-12T07:48:28.468Z,90.43
2017-09-12T07:49:28.444Z,90.53
2017-09-12T07:50:28.421Z,90.62
2017-09-12T07:51:28.397Z,90.81
2017-09-12T07:52:28.382Z,90
2017-09-12T07:53:28.360Z,90.19
2017-09-12T07:54:28.340Z,89.57
2017-09-12T07:55:28.318Z,90.05
2017-09-12T07:56:28.299Z,89.57
2017-09-12T07:57:27.968Z,90.39
2017-09-12T07:58:28.259Z,90.43
2017-09-12T07:59:27.928Z,91
2017-09-12T08:00:28.221Z,90.81
2017-09-12T08:01:28.192Z,90.62
2017-09-12T08:02:28.176Z,90.81
2017-09-12T08:03:28.151Z,90.91
2017-09-12T08:04:27.835Z,90.72
2017-09-12T08:05:28.116Z,90.62
2017-09-12T08:06:27.795Z,90.72
2017-09-12T08:07:28.071Z,90
2017-09-12T08:08:28.052Z,89.75
2017-09-12T08:09:28.033Z,89.32
2017-09-12T08:10:28.013Z,88.84
2017-09-12T08:11:27.993Z,88.79
2017-09-12T08:12:27.972Z,87.96
2017-09-12T08:13:27.967Z,87.15
2017-09-12T08:14:27.931Z,85.5
2017-09-12T08:15:27.912Z,84.1
2017-09-12T08:16:27.901Z,84.1
2017-09-12T08:17:27.880Z,82.75
2017-09-12T08:18:27.865Z,82.71
2017-09-12T08:19:27.843Z,81.75
2017-09-12T08:20:27.822Z,81.12
2017-09-12T08:21:27.817Z,81.27
2017-09-12T08:22:27.783Z,81.61
2017-09-12T08:23:27.766Z,82.38
2017-09-12T08:24:27.802Z,82.29
2017-09-12T08:25:27.736Z,81.46
2017-09-12T08:26:27.410Z,81.07
2017-09-12T08:27:27.696Z,81.17
2017-09-12T08:28:27.681Z,81.07
2017-09-12T08:29:27.659Z,79.67
2017-09-12T08:30:27.643Z,78.27
2017-09-12T08:31:27.627Z,77.21
2017-09-12T08:32:27.603Z,77.26
2017-09-12T08:33:27.598Z,77.94
2017-09-12T08:34:27.573Z,77.9
2017-09-12T08:35:27.560Z,78.96
2017-09-12T08:36:27.537Z,79.79
2017-09-12T08:37:27.517Z,79.88
2017-09-12T08:38:27.508Z,79.02
2017-09-12T08:39:27.179Z,79.69
2017-09-12T08:40:27.469Z,78.83
2017-09-12T08:41:27.485Z,78.77
2017-09-12T08:42:27.433Z,76.59
2017-09-12T08:43:27.426Z,75.38
2017-09-12T08:44:27.407Z,73.97
2017-09-12T08:45:27.384Z,73.68
2017-09-12T08:46:27.362Z,73.58
2017-09-12T08:47:27.359Z,73.84
2017-09-12T08:48:27.331Z,74.22
2017-09-12T08:49:27.313Z,74.67
2017-09-12T08:50:27.300Z,74.76
2017-09-12T08:51:27.280Z,75.15
2017-09-12T08:52:27.265Z,76.26
2017-09-12T08:53:27.246Z,76.17
2017-09-12T08:54:27.238Z,76.26
2017-09-12T08:55:27.215Z,75.15
2017-09-12T08:56:27.190Z,73.65
2017-09-12T08:57:27.174Z,70.73
2017-09-12T08:58:27.157Z,68.74
2017-09-12T08:59:27.149Z,67.07
2017-09-12T09:00:26.821Z,66.14
2017-09-12T09:01:27.108Z,62.6
2017-09-12T09:02:27.100Z,60.09
2017-09-12T09:03:27.077Z,60.64
2017-09-12T09:04:27.067Z,60.76
2017-09-12T09:05:27.255Z,59.12
2017-09-12T09:06:27.039Z,57.54
2017-09-12T09:07:27.018Z,55.34
2017-09-12T09:08:26.697Z,54.88
2017-09-12T09:09:26.994Z,53.07
2017-09-12T09:10:26.979Z,51.42
2017-09-12T09:11:26.971Z,50.55
2017-09-12T09:12:26.952Z,51.42
2017-09-12T09:13:26.945Z,50.26
2017-09-12T09:14:26.924Z,50.07
2017-09-12T09:15:26.914Z,49.1
2017-09-12T09:16:26.906Z,49.17
2017-09-12T09:17:26.585Z,49.95
2017-09-12T09:18:26.874Z,50.79
2017-09-12T09:19:26.860Z,52.67
2017-09-12T09:20:26.849Z,53.81
2017-09-12T09:21:26.838Z,54.77
2017-09-12T09:22:26.822Z,54.68
2017-09-12T09:23:26.811Z,53.74
2017-09-12T09:24:26.798Z,52.8
2017-09-12T09:25:26.782Z,52.02
2017-09-12T09:26:26.771Z,50.5
2017-09-12T09:27:26.759Z,50.7
2017-09-12T09:28:26.757Z,50.02
2017-09-12T09:29:26.427Z,49.73
2017-09-12T09:30:26.411Z,49.75
2017-09-12T09:31:26.717Z,48.97
2017-09-12T09:32:26.700Z,49.34
2017-09-12T09:33:26.670Z,50.28
2017-09-12T09:34:26.674Z,51.87
2017-09-12T09:35:26.659Z,53.39
2017-09-12T09:36:26.644Z,54.62
2017-09-12T09:37:26.626Z,54.82
2017-09-12T09:38:26.620Z,55.1
2017-09-12T09:39:26.595Z,56.43
2017-09-12T09:40:26.599Z,57.07
2017-09-12T09:41:26.566Z,57.29
2017-09-12T09:42:26.556Z,55.88
2017-09-12T09:43:26.554Z,53.69
2017-09-12T09:44:26.530Z,53.52
2017-09-12T09:45:26.517Z,53.78
2017-09-12T09:46:26.497Z,53.56
2017-09-12T09:47:26.505Z,55.46
2017-09-12T09:48:26.467Z,56.88
2017-09-12T09:49:26.452Z,58.69
2017-09-12T09:50:26.436Z,60.97
2017-09-12T09:51:26.111Z,62.67
2017-09-12T09:52:26.402Z,63.06
2017-09-12T09:53:26.387Z,65.33
2017-09-12T09:54:26.368Z,65.08
2017-09-12T09:55:26.363Z,66.42
2017-09-12T09:56:26.334Z,66.52
2017-09-12T09:57:26.358Z,67.29
2017-09-12T09:58:26.302Z,67.58
2017-09-12T09:59:25.988Z,67.1
2017-09-12T10:00:26.269Z,67.55
2017-09-12T10:01:26.250Z,67.93
2017-09-12T10:02:26.240Z,68.41
2017-09-12T10:03:26.218Z,67.19
2017-09-12T10:04:26.209Z,66.11
2017-09-12T10:05:26.188Z,64.79
2017-09-12T10:06:26.164Z,62.7
2017-09-12T10:07:26.152Z,60.61
2017-09-12T10:08:26.166Z,58.97
2017-09-12T10:09:26.128Z,59.93
2017-09-12T10:10:26.106Z,59.03
2017-09-12T10:11:26.098Z,59.97
2017-09-12T10:12:26.077Z,60.8
2017-09-12T10:13:26.056Z,61.65
2017-09-12T10:14:26.043Z,62.77
2017-09-12T10:15:26.019Z,63.25
2017-09-12T10:16:26.005Z,65.14
2017-09-12T10:17:25.993Z,65.43
2017-09-12T10:18:25.972Z,66.78
2017-09-12T10:19:25.651Z,67.16
2017-09-12T10:20:25.935Z,67.16
2017-09-12T10:21:25.920Z,67.55
2017-09-12T10:22:25.907Z,67.35
2017-09-12T10:23:25.589Z,68.19
2017-09-12T10:24:25.561Z,68.38
2017-09-12T10:25:25.847Z,68.09
2017-09-12T10:26:25.828Z,67.9
2017-09-12T10:27:25.817Z,68.48
2017-09-12T10:28:25.804Z,68.76
2017-09-12T10:29:25.783Z,69.34
2017-09-12T10:30:25.455Z,69.73
2017-09-12T10:31:25.746Z,69.63
2017-09-12T10:32:25.776Z,69.53
2017-09-12T10:33:25.712Z,69.15
2017-09-12T10:34:25.377Z,69.44
2017-09-12T10:35:25.671Z,70.01
2017-09-12T10:36:25.342Z,70.01
2017-09-12T10:37:25.629Z,69.73
2017-09-12T10:38:25.607Z,69.44
2017-09-12T10:39:25.589Z,69.44
2017-09-12T10:40:25.581Z,69.24
2017-09-12T10:41:25.559Z,69.24
2017-09-12T10:42:25.534Z,69.31
2017-09-12T10:43:25.522Z,69.5
2017-09-12T10:44:25.496Z,69.02
2017-09-12T10:45:25.475Z,69.21
2017-09-12T10:46:25.498Z,68.92
2017-09-12T10:47:25.442Z,69.21
2017-09-12T10:48:25.444Z,69.21
2017-09-12T10:49:25.401Z,68.83
2017-09-12T10:50:25.381Z,69.02
2017-09-12T10:51:25.366Z,69.31
2017-09-12T10:52:25.345Z,69.98
2017-09-12T10:53:25.327Z,70.07
2017-09-12T10:54:24.998Z,70.17
2017-09-12T10:55:25.289Z,70.23
2017-09-12T10:56:25.270Z,70.23
2017-09-12T10:57:25.250Z,69.85
2017-09-12T10:58:25.239Z,70.14
2017-09-12T10:59:24.901Z,70.33
2017-09-12T11:00:25.191Z,70.04
2017-09-12T11:01:25.179Z,70.04
2017-09-12T11:02:25.155Z,71.19
2017-09-12T11:03:24.827Z,70.9
2017-09-12T11:04:25.121Z,70.62
2017-09-12T11:05:24.795Z,71.45
2017-09-12T11:06:25.082Z,71.45
2017-09-12T11:07:24.752Z,72.02
2017-09-12T11:08:25.042Z,72.54
2017-09-12T11:09:24.716Z,73.02
2017-09-12T11:10:25.019Z,73.21
2017-09-12T11:11:24.980Z,73.02
2017-09-12T11:12:24.963Z,72.73
2017-09-12T11:13:24.639Z,72.99
2017-09-12T11:14:24.931Z,73.66
2017-09-12T11:15:24.913Z,74.13
2017-09-12T11:16:24.885Z,73.94
2017-09-12T11:17:24.865Z,74.23
2017-09-12T11:18:24.843Z,74.33
2017-09-12T11:19:24.822Z,74.43
2017-09-12T11:20:24.809Z,74.62
2017-09-12T11:21:24.783Z,74.52
2017-09-12T11:22:24.798Z,73.94
2017-09-12T11:23:24.748Z,74.17
2017-09-12T11:24:24.731Z,74.13
2017-09-12T11:25:24.710Z,73.6
2017-09-12T11:26:24.686Z,73.79
2017-09-12T11:27:24.667Z,73.5
2017-09-12T11:28:24.647Z,73.69
2017-09-12T11:29:24.626Z,73.79
2017-09-12T11:30:24.610Z,73.79
2017-09-12T11:31:24.594Z,73.69
2017-09-12T11:32:24.572Z,73.21
2017-09-12T11:33:24.547Z,72.83
2017-09-12T11:34:24.526Z,71.96
2017-09-12T11:35:24.205Z,71.77
2017-09-12T11:36:24.490Z,72.34
2017-09-12T11:37:24.484Z,71.77
2017-09-12T11:38:24.450Z,71.77
2017-09-12T11:39:24.436Z,71.87
2017-09-12T11:40:24.411Z,71.67
2017-09-12T11:41:24.392Z,72.06
2017-09-12T11:42:24.374Z,71.91
2017-09-12T11:43:24.353Z,71.61
2017-09-12T11:44:24.330Z,70.94
2017-09-12T11:45:24.311Z,71.23
2017-09-12T11:46:24.295Z,70.75
2017-09-12T11:47:24.276Z,70.27
2017-09-12T11:48:24.253Z,69.79
2017-09-12T11:49:24.235Z,69.31
2017-09-12T11:50:24.219Z,69.21
2017-09-12T11:51:24.192Z,68.44
2017-09-12T11:52:24.174Z,67.96
2017-09-12T11:53:24.155Z,67.38
2017-09-12T11:54:24.138Z,67.68
2017-09-12T11:55:24.115Z,67.22
2017-09-12T11:56:24.102Z,66.46
2017-09-12T11:57:24.076Z,66.65
2017-09-12T11:58:24.060Z,67.22
2017-09-12T11:59:24.040Z,67.22
2017-09-12T12:00:24.022Z,67.22
2017-09-12T12:01:24.008Z,67.51
2017-09-12T12:02:23.980Z,67.51
2017-09-12T12:03:23.655Z,68.09
2017-09-12T12:04:23.944Z,68.29
2017-09-12T12:05:23.923Z,67.42
2017-09-12T12:06:23.909Z,65.97
2017-09-12T12:07:23.890Z,65.69
2017-09-12T12:08:23.874Z,65.88
2017-09-12T12:09:23.854Z,65.3
2017-09-12T12:10:23.830Z,65.3
2017-09-12T12:11:23.815Z,65.2
2017-09-12T12:12:23.788Z,65.27
2017-09-12T12:13:23.767Z,65.08
2017-09-12T12:14:23.761Z,64.89
2017-09-12T12:15:23.493Z,65.56
2017-09-12T12:16:23.606Z,65.84
2017-09-12T12:17:23.703Z,66.23
2017-09-12T12:18:23.366Z,67.29
2017-09-12T12:19:23.693Z,67.58
2017-09-12T12:20:23.633Z,67.68
2017-09-12T12:21:23.611Z,67.48
2017-09-12T12:22:23.591Z,67.38
2017-09-12T12:23:23.581Z,67.38
2017-09-12T12:24:23.560Z,66.52
2017-09-12T12:25:23.543Z,66.61
2017-09-12T12:26:23.521Z,66.61
2017-09-12T12:27:23.500Z,66.71
2017-09-12T12:28:23.476Z,66.04
2017-09-12T12:29:23.464Z,65.5
2017-09-12T12:30:23.444Z,65.94
2017-09-12T12:31:23.428Z,65.94
2017-09-12T12:32:23.398Z,65.84
2017-09-12T12:33:23.378Z,65.88
2017-09-12T12:34:23.362Z,65.88
2017-09-12T12:35:23.346Z,65.59
2017-09-12T12:36:23.322Z,64.43
2017-09-12T12:37:23.301Z,64.05
2017-09-12T12:38:22.979Z,62.99
2017-09-12T12:39:23.294Z,62.99
2017-09-12T12:40:23.250Z,63.28
2017-09-12T12:41:23.228Z,62.71
2017-09-12T12:42:23.205Z,62.61
2017-09-12T12:43:23.186Z,62.99
2017-09-12T12:44:23.172Z,63.06
2017-09-12T12:45:23.152Z,63.45
2017-09-12T12:46:23.152Z,64.6
2017-09-12T12:47:23.114Z,64.6
2017-09-12T12:48:23.096Z,65.08
2017-09-12T12:49:23.072Z,64.89
2017-09-12T12:50:23.052Z,64.69
2017-09-12T12:51:22.729Z,64.98
2017-09-12T12:52:23.013Z,65.94
2017-09-12T12:53:22.988Z,65.46
2017-09-12T12:54:22.973Z,65.17
2017-09-12T12:55:22.964Z,65.27
2017-09-12T12:56:22.944Z,65.37